sensor_id;sensor_type;location;lat;lon;timestamp;P1;durP1;ratioP1;P2;durP2;ratioP2
53513;SDS011;39768;54.148;12.174;2023-06-10T00:00:06;0.38;;;0.38;;
53513;SDS011;39768;54.148;12.174;2023-06-10T00:04:16;0.15;;;0.15;;
53513;SDS011;39768;54.148;12.174;2023-06-10T00:08:18;0.10;;;0.10;;
53513;SDS011;39768;54.148;12.174;2023-06-10T00:12:20;2.92;;;0.25;;
53513;SDS011;39768;54.148;12.174;2023-06-10T00:16:22;0.32;;;0.30;;
53513;SDS011;39768;54.148;12.174;2023-06-10T00:20:24;0.03;;;0.03;;
53513;SDS011;39768;54.148;12.174;2023-06-10T00:24:26;0.60;;;0.60;;
53513;SDS011;39768;54.148;12.174;2023-06-10T00:28:27;0.10;;;0.10;;
53513;SDS011;39768;54.148;12.174;2023-06-10T00:32:30;0.20;;;0.20;;
53513;SDS011;39768;54.148;12.174;2023-06-10T00:36:32;0.10;;;0.10;;
53513;SDS011;39768;54.148;12.174;2023-06-10T00:40:43;1.65;;;0.73;;
53513;SDS011;39768;54.148;12.174;2023-06-10T00:44:44;0.10;;;0.10;;
53513;SDS011;39768;54.148;12.174;2023-06-10T00:48:46;0.25;;;0.25;;
53513;SDS011;39768;54.148;12.174;2023-06-10T00:52:47;0.10;;;0.10;;
53513;SDS011;39768;54.148;12.174;2023-06-10T00:56:49;0.00;;;0.00;;
53513;SDS011;39768;54.148;12.174;2023-06-10T01:00:51;0.10;;;0.10;;
53513;SDS011;39768;54.148;12.174;2023-06-10T01:04:53;0.10;;;0.10;;
53513;SDS011;39768;54.148;12.174;2023-06-10T01:09:15;0.00;;;0.00;;
53513;SDS011;39768;54.148;12.174;2023-06-10T01:13:24;0.28;;;0.28;;
53513;SDS011;39768;54.148;12.174;2023-06-10T01:17:31;0.28;;;0.28;;
53513;SDS011;39768;54.148;12.174;2023-06-10T01:21:33;0.10;;;0.10;;
53513;SDS011;39768;54.148;12.174;2023-06-10T01:25:37;0.08;;;0.08;;
53513;SDS011;39768;54.148;12.174;2023-06-10T01:29:41;0.10;;;0.10;;
53513;SDS011;39768;54.148;12.174;2023-06-10T01:33:48;0.10;;;0.10;;
53513;SDS011;39768;54.148;12.174;2023-06-10T01:37:53;0.10;;;0.10;;
53513;SDS011;39768;54.148;12.174;2023-06-10T01:41:57;0.35;;;0.35;;
53513;SDS011;39768;54.148;12.174;2023-06-10T01:46:00;0.00;;;0.00;;
53513;SDS011;39768;54.148;12.174;2023-06-10T01:50:02;0.00;;;0.00;;
53513;SDS011;39768;54.148;12.174;2023-06-10T01:54:03;0.10;;;0.10;;
53513;SDS011;39768;54.148;12.174;2023-06-10T01:58:05;0.47;;;0.47;;
53513;SDS011;39768;54.148;12.174;2023-06-10T02:02:06;0.65;;;0.65;;
53513;SDS011;39768;54.148;12.174;2023-06-10T02:06:08;0.10;;;0.10;;
53513;SDS011;39768;54.148;12.174;2023-06-10T02:10:09;0.90;;;0.90;;
53513;SDS011;39768;54.148;12.174;2023-06-10T02:14:11;0.00;;;0.00;;
53513;SDS011;39768;54.148;12.174;2023-06-10T02:18:12;0.10;;;0.10;;
53513;SDS011;39768;54.148;12.174;2023-06-10T02:22:14;1.83;;;0.03;;
53513;SDS011;39768;54.148;12.174;2023-06-10T02:26:16;0.00;;;0.00;;
53513;SDS011;39768;54.148;12.174;2023-06-10T02:30:17;0.00;;;0.00;;
53513;SDS011;39768;54.148;12.174;2023-06-10T02:34:20;0.22;;;0.22;;
53513;SDS011;39768;54.148;12.174;2023-06-10T02:38:22;0.30;;;0.30;;
53513;SDS011;39768;54.148;12.174;2023-06-10T02:42:24;0.85;;;0.85;;
53513;SDS011;39768;54.148;12.174;2023-06-10T02:46:26;0.40;;;0.40;;
53513;SDS011;39768;54.148;12.174;2023-06-10T02:50:30;0.15;;;0.10;;
53513;SDS011;39768;54.148;12.174;2023-06-10T02:55:01;0.10;;;0.10;;
53513;SDS011;39768;54.148;12.174;2023-06-10T02:59:02;1.38;;;1.27;;
53513;SDS011;39768;54.148;12.174;2023-06-10T03:03:05;0.32;;;0.32;;
53513;SDS011;39768;54.148;12.174;2023-06-10T03:07:16;0.35;;;0.10;;
53513;SDS011;39768;54.148;12.174;2023-06-10T03:11:20;0.17;;;0.17;;
53513;SDS011;39768;54.148;12.174;2023-06-10T03:15:23;0.47;;;0.40;;
53513;SDS011;39768;54.148;12.174;2023-06-10T03:19:26;0.03;;;0.03;;
53513;SDS011;39768;54.148;12.174;2023-06-10T03:23:29;0.10;;;0.10;;
53513;SDS011;39768;54.148;12.174;2023-06-10T03:27:31;0.10;;;0.10;;
53513;SDS011;39768;54.148;12.174;2023-06-10T03:31:37;0.30;;;0.30;;
53513;SDS011;39768;54.148;12.174;2023-06-10T03:35:40;0.13;;;0.13;;
53513;SDS011;39768;54.148;12.174;2023-06-10T03:39:42;0.10;;;0.10;;
53513;SDS011;39768;54.148;12.174;2023-06-10T03:43:44;0.17;;;0.17;;
53513;SDS011;39768;54.148;12.174;2023-06-10T03:47:47;0.98;;;0.30;;
53513;SDS011;39768;54.148;12.174;2023-06-10T03:51:52;0.40;;;0.40;;
53513;SDS011;39768;54.148;12.174;2023-06-10T03:55:54;0.10;;;0.10;;
53513;SDS011;39768;54.148;12.174;2023-06-10T03:59:58;0.15;;;0.15;;
53513;SDS011;39768;54.148;12.174;2023-06-10T04:03:59;0.10;;;0.10;;
53513;SDS011;39768;54.148;12.174;2023-06-10T04:08:02;0.10;;;0.10;;
53513;SDS011;39768;54.148;12.174;2023-06-10T04:12:04;0.20;;;0.20;;
53513;SDS011;39768;54.148;12.174;2023-06-10T04:16:07;0.10;;;0.10;;
53513;SDS011;39768;54.148;12.174;2023-06-10T04:20:09;0.30;;;0.30;;
53513;SDS011;39768;54.148;12.174;2023-06-10T04:24:13;0.10;;;0.10;;
53513;SDS011;39768;54.148;12.174;2023-06-10T04:28:17;0.10;;;0.10;;
53513;SDS011;39768;54.148;12.174;2023-06-10T04:32:18;0.10;;;0.10;;
53513;SDS011;39768;54.148;12.174;2023-06-10T04:36:20;0.10;;;0.10;;
53513;SDS011;39768;54.148;12.174;2023-06-10T04:40:22;0.10;;;0.10;;
53513;SDS011;39768;54.148;12.174;2023-06-10T04:44:24;0.10;;;0.10;;
53513;SDS011;39768;54.148;12.174;2023-06-10T04:48:26;0.40;;;0.40;;
53513;SDS011;39768;54.148;12.174;2023-06-10T04:52:28;0.68;;;0.20;;
53513;SDS011;39768;54.148;12.174;2023-06-10T04:56:30;0.22;;;0.22;;
53513;SDS011;39768;54.148;12.174;2023-06-10T05:00:31;0.17;;;0.17;;
53513;SDS011;39768;54.148;12.174;2023-06-10T05:04:33;0.10;;;0.10;;
53513;SDS011;39768;54.148;12.174;2023-06-10T05:08:35;0.17;;;0.17;;
53513;SDS011;39768;54.148;12.174;2023-06-10T05:12:36;0.00;;;0.00;;
53513;SDS011;39768;54.148;12.174;2023-06-10T05:16:39;0.10;;;0.10;;
53513;SDS011;39768;54.148;12.174;2023-06-10T05:20:41;0.10;;;0.10;;
53513;SDS011;39768;54.148;12.174;2023-06-10T05:24:42;0.15;;;0.15;;
53513;SDS011;39768;54.148;12.174;2023-06-10T05:28:45;0.10;;;0.10;;
53513;SDS011;39768;54.148;12.174;2023-06-10T05:32:46;0.20;;;0.20;;
53513;SDS011;39768;54.148;12.174;2023-06-10T05:36:48;0.20;;;0.20;;
53513;SDS011;39768;54.148;12.174;2023-06-10T05:40:49;0.10;;;0.10;;
53513;SDS011;39768;54.148;12.174;2023-06-10T05:44:51;9.23;;;0.50;;
53513;SDS011;39768;54.148;12.174;2023-06-10T05:48:52;0.00;;;0.00;;
53513;SDS011;39768;54.148;12.174;2023-06-10T05:52:54;0.20;;;0.20;;
53513;SDS011;39768;54.148;12.174;2023-06-10T05:56:56;0.00;;;0.00;;
53513;SDS011;39768;54.148;12.174;2023-06-10T06:04:57;0.08;;;0.08;;
53513;SDS011;39768;54.148;12.174;2023-06-10T06:08:59;0.98;;;0.28;;
53513;SDS011;39768;54.148;12.174;2023-06-10T06:13:00;0.25;;;0.25;;
53513;SDS011;39768;54.148;12.174;2023-06-10T06:17:02;0.10;;;0.10;;
53513;SDS011;39768;54.148;12.174;2023-06-10T06:21:04;0.10;;;0.10;;
53513;SDS011;39768;54.148;12.174;2023-06-10T06:25:06;0.70;;;0.70;;
53513;SDS011;39768;54.148;12.174;2023-06-10T06:29:08;0.00;;;0.00;;
53513;SDS011;39768;54.148;12.174;2023-06-10T06:33:10;0.60;;;0.60;;
53513;SDS011;39768;54.148;12.174;2023-06-10T06:37:11;0.10;;;0.10;;
53513;SDS011;39768;54.148;12.174;2023-06-10T06:41:16;0.10;;;0.10;;
53513;SDS011;39768;54.148;12.174;2023-06-10T06:45:17;0.20;;;0.20;;
53513;SDS011;39768;54.148;12.174;2023-06-10T06:49:19;0.10;;;0.10;;
53513;SDS011;39768;54.148;12.174;2023-06-10T06:53:21;0.10;;;0.10;;
53513;SDS011;39768;54.148;12.174;2023-06-10T06:57:22;0.15;;;0.15;;
53513;SDS011;39768;54.148;12.174;2023-06-10T07:01:24;0.10;;;0.10;;
53513;SDS011;39768;54.148;12.174;2023-06-10T07:05:26;0.00;;;0.00;;
53513;SDS011;39768;54.148;12.174;2023-06-10T07:09:28;0.10;;;0.10;;
53513;SDS011;39768;54.148;12.174;2023-06-10T07:13:30;0.10;;;0.10;;
53513;SDS011;39768;54.148;12.174;2023-06-10T07:17:31;0.32;;;0.28;;
53513;SDS011;39768;54.148;12.174;2023-06-10T07:21:33;5.55;;;1.42;;
53513;SDS011;39768;54.148;12.174;2023-06-10T07:25:35;5.72;;;2.97;;
53513;SDS011;39768;54.148;12.174;2023-06-10T07:29:36;5.85;;;5.22;;
53513;SDS011;39768;54.148;12.174;2023-06-10T07:33:38;7.55;;;4.65;;
53513;SDS011;39768;54.148;12.174;2023-06-10T07:37:44;9.63;;;3.28;;
53513;SDS011;39768;54.148;12.174;2023-06-10T07:41:47;1.48;;;1.17;;
53513;SDS011;39768;54.148;12.174;2023-06-10T07:45:50;4.70;;;1.60;;
53513;SDS011;39768;54.148;12.174;2023-06-10T07:49:51;13.45;;;2.35;;
53513;SDS011;39768;54.148;12.174;2023-06-10T07:53:53;4.40;;;1.00;;
53513;SDS011;39768;54.148;12.174;2023-06-10T07:57:54;1.60;;;1.25;;
53513;SDS011;39768;54.148;12.174;2023-06-10T08:01:56;4.38;;;2.15;;
53513;SDS011;39768;54.148;12.174;2023-06-10T08:05:58;0.55;;;0.55;;
53513;SDS011;39768;54.148;12.174;2023-06-10T08:10:00;2.92;;;2.28;;
53513;SDS011;39768;54.148;12.174;2023-06-10T08:14:01;5.90;;;1.58;;
53513;SDS011;39768;54.148;12.174;2023-06-10T08:18:03;1.90;;;1.80;;
53513;SDS011;39768;54.148;12.174;2023-06-10T08:22:05;2.63;;;2.40;;
53513;SDS011;39768;54.148;12.174;2023-06-10T08:26:06;0.88;;;0.88;;
53513;SDS011;39768;54.148;12.174;2023-06-10T08:30:08;0.38;;;0.38;;
53513;SDS011;39768;54.148;12.174;2023-06-10T08:34:11;0.28;;;0.28;;
53513;SDS011;39768;54.148;12.174;2023-06-10T08:38:13;1.08;;;1.08;;
53513;SDS011;39768;54.148;12.174;2023-06-10T08:46:29;16.50;;;2.50;;
53513;SDS011;39768;54.148;12.174;2023-06-10T08:50:34;0.35;;;0.17;;
53513;SDS011;39768;54.148;12.174;2023-06-10T08:54:38;1.10;;;1.10;;
53513;SDS011;39768;54.148;12.174;2023-06-10T08:58:40;0.20;;;0.20;;
53513;SDS011;39768;54.148;12.174;2023-06-10T09:02:43;1.38;;;0.43;;
53513;SDS011;39768;54.148;12.174;2023-06-10T09:06:45;0.45;;;0.45;;
53513;SDS011;39768;54.148;12.174;2023-06-10T09:10:50;3.65;;;1.73;;
53513;SDS011;39768;54.148;12.174;2023-06-10T09:14:51;0.80;;;0.80;;
53513;SDS011;39768;54.148;12.174;2023-06-10T09:18:53;0.32;;;0.32;;
53513;SDS011;39768;54.148;12.174;2023-06-10T09:22:56;0.55;;;0.55;;
53513;SDS011;39768;54.148;12.174;2023-06-10T09:27:05;0.35;;;0.35;;
53513;SDS011;39768;54.148;12.174;2023-06-10T09:31:07;2.28;;;0.20;;
53513;SDS011;39768;54.148;12.174;2023-06-10T09:35:10;0.30;;;0.30;;
53513;SDS011;39768;54.148;12.174;2023-06-10T09:39:15;0.10;;;0.10;;
53513;SDS011;39768;54.148;12.174;2023-06-10T09:43:18;0.10;;;0.10;;
53513;SDS011;39768;54.148;12.174;2023-06-10T09:47:20;0.20;;;0.20;;
53513;SDS011;39768;54.148;12.174;2023-06-10T09:51:23;0.43;;;0.43;;
53513;SDS011;39768;54.148;12.174;2023-06-10T09:55:25;0.20;;;0.20;;
53513;SDS011;39768;54.148;12.174;2023-06-10T09:59:30;14.27;;;1.27;;
53513;SDS011;39768;54.148;12.174;2023-06-10T10:03:33;0.20;;;0.20;;
53513;SDS011;39768;54.148;12.174;2023-06-10T10:07:35;0.68;;;0.68;;
53513;SDS011;39768;54.148;12.174;2023-06-10T10:11:36;0.13;;;0.13;;
53513;SDS011;39768;54.148;12.174;2023-06-10T10:15:38;2.50;;;1.08;;
53513;SDS011;39768;54.148;12.174;2023-06-10T10:19:43;0.10;;;0.10;;
53513;SDS011;39768;54.148;12.174;2023-06-10T10:23:53;0.30;;;0.30;;
53513;SDS011;39768;54.148;12.174;2023-06-10T10:28:17;1.13;;;1.10;;
53513;SDS011;39768;54.148;12.174;2023-06-10T10:32:24;0.38;;;0.38;;
53513;SDS011;39768;54.148;12.174;2023-06-10T10:41:52;1.20;;;1.20;;
53513;SDS011;39768;54.148;12.174;2023-06-10T10:47:27;0.98;;;0.30;;
53513;SDS011;39768;54.148;12.174;2023-06-10T10:53:09;0.95;;;0.35;;
53513;SDS011;39768;54.148;12.174;2023-06-10T10:57:59;0.55;;;0.47;;
53513;SDS011;39768;54.148;12.174;2023-06-10T11:02:51;1.17;;;0.90;;
53513;SDS011;39768;54.148;12.174;2023-06-10T11:07:43;0.43;;;0.43;;
53513;SDS011;39768;54.148;12.174;2023-06-10T11:17:27;0.57;;;0.57;;
53513;SDS011;39768;54.148;12.174;2023-06-10T11:22:27;0.10;;;0.10;;
53513;SDS011;39768;54.148;12.174;2023-06-10T11:27:23;0.10;;;0.10;;
53513;SDS011;39768;54.148;12.174;2023-06-10T11:31:51;0.47;;;0.47;;
53513;SDS011;39768;54.148;12.174;2023-06-10T11:35:58;0.10;;;0.10;;
53513;SDS011;39768;54.148;12.174;2023-06-10T11:40:11;0.63;;;0.40;;
53513;SDS011;39768;54.148;12.174;2023-06-10T11:44:25;0.22;;;0.22;;
53513;SDS011;39768;54.148;12.174;2023-06-10T11:48:34;0.35;;;0.35;;
53513;SDS011;39768;54.148;12.174;2023-06-10T11:52:38;0.10;;;0.10;;
53513;SDS011;39768;54.148;12.174;2023-06-10T11:56:45;0.57;;;0.57;;
53513;SDS011;39768;54.148;12.174;2023-06-10T12:00:48;0.10;;;0.10;;
53513;SDS011;39768;54.148;12.174;2023-06-10T12:05:14;0.82;;;0.82;;
53513;SDS011;39768;54.148;12.174;2023-06-10T12:09:21;0.40;;;0.40;;
53513;SDS011;39768;54.148;12.174;2023-06-10T12:13:30;0.20;;;0.20;;
53513;SDS011;39768;54.148;12.174;2023-06-10T12:21:34;0.10;;;0.10;;
53513;SDS011;39768;54.148;12.174;2023-06-10T12:25:38;0.57;;;0.57;;
53513;SDS011;39768;54.148;12.174;2023-06-10T12:29:50;0.52;;;0.50;;
53513;SDS011;39768;54.148;12.174;2023-06-10T12:34:09;0.38;;;0.38;;
53513;SDS011;39768;54.148;12.174;2023-06-10T12:38:11;0.75;;;0.75;;
53513;SDS011;39768;54.148;12.174;2023-06-10T12:42:13;0.60;;;0.60;;
53513;SDS011;39768;54.148;12.174;2023-06-10T12:46:15;0.57;;;0.40;;
53513;SDS011;39768;54.148;12.174;2023-06-10T12:50:18;0.20;;;0.20;;
53513;SDS011;39768;54.148;12.174;2023-06-10T12:54:20;0.10;;;0.10;;
53513;SDS011;39768;54.148;12.174;2023-06-10T12:58:22;0.93;;;0.93;;
53513;SDS011;39768;54.148;12.174;2023-06-10T13:02:24;0.30;;;0.30;;
53513;SDS011;39768;54.148;12.174;2023-06-10T13:06:26;0.90;;;0.90;;
53513;SDS011;39768;54.148;12.174;2023-06-10T13:10:27;2.67;;;0.98;;
53513;SDS011;39768;54.148;12.174;2023-06-10T13:14:29;0.10;;;0.10;;
53513;SDS011;39768;54.148;12.174;2023-06-10T13:18:30;2.92;;;0.77;;
53513;SDS011;39768;54.148;12.174;2023-06-10T13:22:38;0.10;;;0.10;;
53513;SDS011;39768;54.148;12.174;2023-06-10T13:26:39;1.38;;;0.73;;
53513;SDS011;39768;54.148;12.174;2023-06-10T13:30:41;0.40;;;0.40;;
53513;SDS011;39768;54.148;12.174;2023-06-10T13:34:43;2.30;;;2.10;;
53513;SDS011;39768;54.148;12.174;2023-06-10T13:38:44;0.30;;;0.30;;
53513;SDS011;39768;54.148;12.174;2023-06-10T13:42:46;0.20;;;0.20;;
53513;SDS011;39768;54.148;12.174;2023-06-10T13:46:51;0.80;;;0.45;;
53513;SDS011;39768;54.148;12.174;2023-06-10T13:50:53;0.20;;;0.20;;
53513;SDS011;39768;54.148;12.174;2023-06-10T13:54:55;0.45;;;0.45;;
53513;SDS011;39768;54.148;12.174;2023-06-10T13:58:57;1.13;;;1.13;;
53513;SDS011;39768;54.148;12.174;2023-06-10T14:02:58;0.20;;;0.20;;
53513;SDS011;39768;54.148;12.174;2023-06-10T14:07:00;0.50;;;0.50;;
53513;SDS011;39768;54.148;12.174;2023-06-10T14:11:02;0.13;;;0.13;;
53513;SDS011;39768;54.148;12.174;2023-06-10T14:15:03;0.47;;;0.47;;
53513;SDS011;39768;54.148;12.174;2023-06-10T14:19:05;0.55;;;0.55;;
53513;SDS011;39768;54.148;12.174;2023-06-10T14:23:07;0.10;;;0.10;;
53513;SDS011;39768;54.148;12.174;2023-06-10T14:27:08;0.50;;;0.50;;
53513;SDS011;39768;54.148;12.174;2023-06-10T14:31:10;2.60;;;0.45;;
53513;SDS011;39768;54.148;12.174;2023-06-10T14:35:12;1.42;;;1.00;;
53513;SDS011;39768;54.148;12.174;2023-06-10T14:39:13;0.30;;;0.30;;
53513;SDS011;39768;54.148;12.174;2023-06-10T14:43:15;0.52;;;0.45;;
53513;SDS011;39768;54.148;12.174;2023-06-10T14:47:16;0.20;;;0.20;;
53513;SDS011;39768;54.148;12.174;2023-06-10T14:51:18;0.55;;;0.40;;
53513;SDS011;39768;54.148;12.174;2023-06-10T14:55:21;0.63;;;0.45;;
53513;SDS011;39768;54.148;12.174;2023-06-10T14:59:25;0.50;;;0.50;;
53513;SDS011;39768;54.148;12.174;2023-06-10T15:03:27;0.20;;;0.20;;
53513;SDS011;39768;54.148;12.174;2023-06-10T15:07:28;1.17;;;1.08;;
53513;SDS011;39768;54.148;12.174;2023-06-10T15:11:30;0.50;;;0.50;;
53513;SDS011;39768;54.148;12.174;2023-06-10T15:15:32;0.40;;;0.40;;
53513;SDS011;39768;54.148;12.174;2023-06-10T15:19:33;0.60;;;0.30;;
53513;SDS011;39768;54.148;12.174;2023-06-10T15:23:35;0.17;;;0.17;;
53513;SDS011;39768;54.148;12.174;2023-06-10T15:27:36;0.45;;;0.30;;
53513;SDS011;39768;54.148;12.174;2023-06-10T15:31:38;0.75;;;0.75;;
53513;SDS011;39768;54.148;12.174;2023-06-10T15:35:39;2.45;;;0.20;;
53513;SDS011;39768;54.148;12.174;2023-06-10T15:39:41;0.57;;;0.57;;
53513;SDS011;39768;54.148;12.174;2023-06-10T15:43:43;1.35;;;0.65;;
53513;SDS011;39768;54.148;12.174;2023-06-10T15:47:44;0.43;;;0.28;;
53513;SDS011;39768;54.148;12.174;2023-06-10T15:51:46;8.40;;;0.95;;
53513;SDS011;39768;54.148;12.174;2023-06-10T15:55:53;0.40;;;0.40;;
53513;SDS011;39768;54.148;12.174;2023-06-10T15:59:54;1.70;;;0.90;;
53513;SDS011;39768;54.148;12.174;2023-06-10T16:03:56;0.35;;;0.35;;
53513;SDS011;39768;54.148;12.174;2023-06-10T16:07:58;1.13;;;0.70;;
53513;SDS011;39768;54.148;12.174;2023-06-10T16:12:04;0.68;;;0.68;;
53513;SDS011;39768;54.148;12.174;2023-06-10T16:16:07;0.20;;;0.10;;
53513;SDS011;39768;54.148;12.174;2023-06-10T16:20:09;0.20;;;0.20;;
53513;SDS011;39768;54.148;12.174;2023-06-10T16:24:11;0.20;;;0.20;;
53513;SDS011;39768;54.148;12.174;2023-06-10T16:28:13;7.57;;;1.23;;
53513;SDS011;39768;54.148;12.174;2023-06-10T16:32:14;0.40;;;0.40;;
53513;SDS011;39768;54.148;12.174;2023-06-10T16:36:16;0.13;;;0.10;;
53513;SDS011;39768;54.148;12.174;2023-06-10T16:40:17;0.55;;;0.47;;
53513;SDS011;39768;54.148;12.174;2023-06-10T16:44:19;0.47;;;0.47;;
53513;SDS011;39768;54.148;12.174;2023-06-10T16:48:20;0.32;;;0.32;;
53513;SDS011;39768;54.148;12.174;2023-06-10T16:52:22;1.30;;;1.10;;
53513;SDS011;39768;54.148;12.174;2023-06-10T16:56:24;0.10;;;0.10;;
53513;SDS011;39768;54.148;12.174;2023-06-10T17:00:26;0.45;;;0.45;;
53513;SDS011;39768;54.148;12.174;2023-06-10T17:04:27;1.58;;;1.02;;
53513;SDS011;39768;54.148;12.174;2023-06-10T17:08:28;3.15;;;1.48;;
53513;SDS011;39768;54.148;12.174;2023-06-10T17:12:30;0.52;;;0.52;;
53513;SDS011;39768;54.148;12.174;2023-06-10T17:16:31;0.30;;;0.30;;
53513;SDS011;39768;54.148;12.174;2023-06-10T17:20:33;0.50;;;0.50;;
53513;SDS011;39768;54.148;12.174;2023-06-10T17:24:35;2.63;;;1.00;;
53513;SDS011;39768;54.148;12.174;2023-06-10T17:28:36;0.30;;;0.30;;
53513;SDS011;39768;54.148;12.174;2023-06-10T17:32:38;0.55;;;0.55;;
53513;SDS011;39768;54.148;12.174;2023-06-10T17:36:41;0.57;;;0.57;;
53513;SDS011;39768;54.148;12.174;2023-06-10T17:40:43;0.22;;;0.22;;
53513;SDS011;39768;54.148;12.174;2023-06-10T17:44:44;0.00;;;0.00;;
53513;SDS011;39768;54.148;12.174;2023-06-10T17:48:46;0.65;;;0.55;;
53513;SDS011;39768;54.148;12.174;2023-06-10T17:52:48;0.10;;;0.10;;
53513;SDS011;39768;54.148;12.174;2023-06-10T17:56:50;0.25;;;0.15;;
53513;SDS011;39768;54.148;12.174;2023-06-10T18:00:52;0.10;;;0.10;;
53513;SDS011;39768;54.148;12.174;2023-06-10T18:04:54;0.15;;;0.15;;
53513;SDS011;39768;54.148;12.174;2023-06-10T18:08:55;0.20;;;0.20;;
53513;SDS011;39768;54.148;12.174;2023-06-10T18:12:57;0.10;;;0.10;;
53513;SDS011;39768;54.148;12.174;2023-06-10T18:16:58;0.30;;;0.30;;
53513;SDS011;39768;54.148;12.174;2023-06-10T18:21:00;0.32;;;0.32;;
53513;SDS011;39768;54.148;12.174;2023-06-10T18:25:03;0.57;;;0.57;;
53513;SDS011;39768;54.148;12.174;2023-06-10T18:29:06;0.38;;;0.38;;
53513;SDS011;39768;54.148;12.174;2023-06-10T18:33:07;0.10;;;0.10;;
53513;SDS011;39768;54.148;12.174;2023-06-10T18:37:10;0.40;;;0.40;;
53513;SDS011;39768;54.148;12.174;2023-06-10T18:41:11;0.43;;;0.30;;
53513;SDS011;39768;54.148;12.174;2023-06-10T18:45:13;0.55;;;0.55;;
53513;SDS011;39768;54.148;12.174;2023-06-10T18:49:14;1.33;;;1.33;;
53513;SDS011;39768;54.148;12.174;2023-06-10T18:53:16;0.32;;;0.32;;
53513;SDS011;39768;54.148;12.174;2023-06-10T18:57:18;0.20;;;0.20;;
53513;SDS011;39768;54.148;12.174;2023-06-10T19:01:19;0.40;;;0.40;;
53513;SDS011;39768;54.148;12.174;2023-06-10T19:05:21;0.32;;;0.17;;
53513;SDS011;39768;54.148;12.174;2023-06-10T19:09:23;0.25;;;0.25;;
53513;SDS011;39768;54.148;12.174;2023-06-10T19:13:25;0.10;;;0.10;;
53513;SDS011;39768;54.148;12.174;2023-06-10T19:17:28;0.20;;;0.20;;
53513;SDS011;39768;54.148;12.174;2023-06-10T19:21:30;0.10;;;0.10;;
53513;SDS011;39768;54.148;12.174;2023-06-10T19:25:31;0.00;;;0.00;;
53513;SDS011;39768;54.148;12.174;2023-06-10T19:29:33;0.00;;;0.00;;
53513;SDS011;39768;54.148;12.174;2023-06-10T19:33:35;1.00;;;0.20;;
53513;SDS011;39768;54.148;12.174;2023-06-10T19:37:36;0.20;;;0.20;;
53513;SDS011;39768;54.148;12.174;2023-06-10T19:41:38;0.20;;;0.20;;
53513;SDS011;39768;54.148;12.174;2023-06-10T19:45:40;0.10;;;0.10;;
53513;SDS011;39768;54.148;12.174;2023-06-10T19:49:41;0.10;;;0.10;;
53513;SDS011;39768;54.148;12.174;2023-06-10T19:53:43;0.05;;;0.05;;
53513;SDS011;39768;54.148;12.174;2023-06-10T19:57:48;0.10;;;0.10;;
53513;SDS011;39768;54.148;12.174;2023-06-10T20:01:49;0.47;;;0.20;;
53513;SDS011;39768;54.148;12.174;2023-06-10T20:05:51;0.25;;;0.25;;
53513;SDS011;39768;54.148;12.174;2023-06-10T20:09:53;0.08;;;0.08;;
53513;SDS011;39768;54.148;12.174;2023-06-10T20:13:54;0.08;;;0.08;;
53513;SDS011;39768;54.148;12.174;2023-06-10T20:17:56;0.00;;;0.00;;
53513;SDS011;39768;54.148;12.174;2023-06-10T20:21:57;0.00;;;0.00;;
53513;SDS011;39768;54.148;12.174;2023-06-10T20:25:59;0.45;;;0.30;;
53513;SDS011;39768;54.148;12.174;2023-06-10T20:30:01;0.30;;;0.30;;
53513;SDS011;39768;54.148;12.174;2023-06-10T20:34:03;0.30;;;0.30;;
53513;SDS011;39768;54.148;12.174;2023-06-10T20:38:04;0.10;;;0.10;;
53513;SDS011;39768;54.148;12.174;2023-06-10T20:42:06;0.38;;;0.20;;
53513;SDS011;39768;54.148;12.174;2023-06-10T20:46:07;4.90;;;0.85;;
53513;SDS011;39768;54.148;12.174;2023-06-10T20:50:09;0.10;;;0.10;;
53513;SDS011;39768;54.148;12.174;2023-06-10T20:54:11;0.00;;;0.00;;
53513;SDS011;39768;54.148;12.174;2023-06-10T20:58:12;0.10;;;0.10;;
53513;SDS011;39768;54.148;12.174;2023-06-10T21:02:15;0.08;;;0.08;;
53513;SDS011;39768;54.148;12.174;2023-06-10T21:06:17;0.05;;;0.03;;
53513;SDS011;39768;54.148;12.174;2023-06-10T21:10:19;0.10;;;0.10;;
53513;SDS011;39768;54.148;12.174;2023-06-10T21:14:21;0.10;;;0.10;;
53513;SDS011;39768;54.148;12.174;2023-06-10T21:18:23;0.00;;;0.00;;
53513;SDS011;39768;54.148;12.174;2023-06-10T21:22:24;0.10;;;0.10;;
53513;SDS011;39768;54.148;12.174;2023-06-10T21:26:26;0.08;;;0.08;;
53513;SDS011;39768;54.148;12.174;2023-06-10T21:30:27;0.52;;;0.52;;
53513;SDS011;39768;54.148;12.174;2023-06-10T21:34:30;0.30;;;0.30;;
53513;SDS011;39768;54.148;12.174;2023-06-10T21:38:32;0.20;;;0.20;;
53513;SDS011;39768;54.148;12.174;2023-06-10T21:42:34;0.00;;;0.00;;
53513;SDS011;39768;54.148;12.174;2023-06-10T21:46:35;0.43;;;0.25;;
53513;SDS011;39768;54.148;12.174;2023-06-10T21:50:37;0.00;;;0.00;;
53513;SDS011;39768;54.148;12.174;2023-06-10T21:54:39;0.10;;;0.10;;
53513;SDS011;39768;54.148;12.174;2023-06-10T21:58:40;0.00;;;0.00;;
53513;SDS011;39768;54.148;12.174;2023-06-10T22:02:48;0.00;;;0.00;;
53513;SDS011;39768;54.148;12.174;2023-06-10T22:06:50;10.30;;;0.57;;
53513;SDS011;39768;54.148;12.174;2023-06-10T22:10:51;0.10;;;0.10;;
53513;SDS011;39768;54.148;12.174;2023-06-10T22:14:53;0.10;;;0.10;;
53513;SDS011;39768;54.148;12.174;2023-06-10T22:18:54;0.05;;;0.05;;
53513;SDS011;39768;54.148;12.174;2023-06-10T22:22:56;0.00;;;0.00;;
53513;SDS011;39768;54.148;12.174;2023-06-10T22:26:57;0.10;;;0.10;;
53513;SDS011;39768;54.148;12.174;2023-06-10T22:30:59;0.10;;;0.10;;
53513;SDS011;39768;54.148;12.174;2023-06-10T22:35:00;0.00;;;0.00;;
53513;SDS011;39768;54.148;12.174;2023-06-10T22:39:02;0.00;;;0.00;;
53513;SDS011;39768;54.148;12.174;2023-06-10T22:43:04;0.10;;;0.10;;
53513;SDS011;39768;54.148;12.174;2023-06-10T22:47:06;0.28;;;0.20;;
53513;SDS011;39768;54.148;12.174;2023-06-10T22:51:08;0.10;;;0.10;;
53513;SDS011;39768;54.148;12.174;2023-06-10T22:55:09;0.10;;;0.10;;
53513;SDS011;39768;54.148;12.174;2023-06-10T22:59:12;0.28;;;0.20;;
53513;SDS011;39768;54.148;12.174;2023-06-10T23:03:13;0.25;;;0.25;;
53513;SDS011;39768;54.148;12.174;2023-06-10T23:07:15;0.10;;;0.10;;
53513;SDS011;39768;54.148;12.174;2023-06-10T23:11:18;0.10;;;0.10;;
53513;SDS011;39768;54.148;12.174;2023-06-10T23:15:20;1.17;;;0.52;;
53513;SDS011;39768;54.148;12.174;2023-06-10T23:19:21;0.73;;;0.30;;
53513;SDS011;39768;54.148;12.174;2023-06-10T23:23:23;0.10;;;0.10;;
53513;SDS011;39768;54.148;12.174;2023-06-10T23:27:34;0.10;;;0.10;;
53513;SDS011;39768;54.148;12.174;2023-06-10T23:31:36;0.10;;;0.10;;
53513;SDS011;39768;54.148;12.174;2023-06-10T23:35:38;0.00;;;0.00;;
53513;SDS011;39768;54.148;12.174;2023-06-10T23:39:39;0.10;;;0.10;;
53513;SDS011;39768;54.148;12.174;2023-06-10T23:43:45;0.10;;;0.10;;
53513;SDS011;39768;54.148;12.174;2023-06-10T23:47:47;0.00;;;0.00;;
53513;SDS011;39768;54.148;12.174;2023-06-10T23:51:48;0.00;;;0.00;;
53513;SDS011;39768;54.148;12.174;2023-06-10T23:55:50;0.00;;;0.00;;
53513;SDS011;39768;54.148;12.174;2023-06-10T23:59:51;2.40;;;0.28;;
